sensor_id;sensor_type;location;lat;lon;timestamp;temperature;humidity
9975;DHT22;5028;50.974;4.968;2023-05-18T00:01:16;8.20;99.90
9975;DHT22;5028;50.974;4.968;2023-05-18T00:03:45;8.10;99.90
9975;DHT22;5028;50.974;4.968;2023-05-18T00:06:14;8.10;99.90
9975;DHT22;5028;50.974;4.968;2023-05-18T00:08:43;8.00;99.90
9975;DHT22;5028;50.974;4.968;2023-05-18T00:11:12;8.10;99.90
9975;DHT22;5028;50.974;4.968;2023-05-18T00:13:40;8.00;99.90
9975;DHT22;5028;50.974;4.968;2023-05-18T00:16:10;8.00;99.90
9975;DHT22;5028;50.974;4.968;2023-05-18T00:18:43;7.90;99.90
9975;DHT22;5028;50.974;4.968;2023-05-18T00:21:12;7.90;99.90
9975;DHT22;5028;50.974;4.968;2023-05-18T00:23:42;7.90;99.90
9975;DHT22;5028;50.974;4.968;2023-05-18T00:26:15;7.80;99.90
9975;DHT22;5028;50.974;4.968;2023-05-18T00:28:47;7.80;99.90
9975;DHT22;5028;50.974;4.968;2023-05-18T00:31:16;7.80;99.90
9975;DHT22;5028;50.974;4.968;2023-05-18T00:33:46;7.70;99.90
9975;DHT22;5028;50.974;4.968;2023-05-18T00:36:15;7.70;99.90
9975;DHT22;5028;50.974;4.968;2023-05-18T00:38:44;7.70;99.90
9975;DHT22;5028;50.974;4.968;2023-05-18T00:41:13;7.60;99.90
9975;DHT22;5028;50.974;4.968;2023-05-18T00:43:41;7.60;99.90
9975;DHT22;5028;50.974;4.968;2023-05-18T00:46:10;7.60;99.90
9975;DHT22;5028;50.974;4.968;2023-05-18T00:48:39;7.60;99.90
9975;DHT22;5028;50.974;4.968;2023-05-18T00:51:10;7.50;99.90
9975;DHT22;5028;50.974;4.968;2023-05-18T00:53:40;7.50;99.90
9975;DHT22;5028;50.974;4.968;2023-05-18T00:56:10;7.50;99.90
9975;DHT22;5028;50.974;4.968;2023-05-18T00:58:39;7.40;99.90
9975;DHT22;5028;50.974;4.968;2023-05-18T01:01:08;7.50;99.90
9975;DHT22;5028;50.974;4.968;2023-05-18T01:03:38;7.40;99.90
9975;DHT22;5028;50.974;4.968;2023-05-18T01:06:10;7.40;99.90
9975;DHT22;5028;50.974;4.968;2023-05-18T01:08:40;7.40;99.90
9975;DHT22;5028;50.974;4.968;2023-05-18T01:11:16;7.40;99.90
9975;DHT22;5028;50.974;4.968;2023-05-18T01:13:53;7.40;99.90
9975;DHT22;5028;50.974;4.968;2023-05-18T01:16:27;7.30;99.90
9975;DHT22;5028;50.974;4.968;2023-05-18T01:19:05;7.30;99.90
9975;DHT22;5028;50.974;4.968;2023-05-18T01:21:47;7.30;99.90
9975;DHT22;5028;50.974;4.968;2023-05-18T01:24:26;7.30;99.90
9975;DHT22;5028;50.974;4.968;2023-05-18T01:27:02;7.20;99.90
9975;DHT22;5028;50.974;4.968;2023-05-18T01:29:32;7.20;99.90
9975;DHT22;5028;50.974;4.968;2023-05-18T01:32:06;7.20;99.90
9975;DHT22;5028;50.974;4.968;2023-05-18T01:34:35;7.20;99.90
9975;DHT22;5028;50.974;4.968;2023-05-18T01:37:04;7.10;99.90
9975;DHT22;5028;50.974;4.968;2023-05-18T01:39:32;7.10;99.90
9975;DHT22;5028;50.974;4.968;2023-05-18T01:42:07;7.10;99.90
9975;DHT22;5028;50.974;4.968;2023-05-18T01:44:39;7.10;99.90
9975;DHT22;5028;50.974;4.968;2023-05-18T01:47:12;7.10;99.90
9975;DHT22;5028;50.974;4.968;2023-05-18T01:49:46;7.10;99.90
9975;DHT22;5028;50.974;4.968;2023-05-18T01:52:18;7.00;99.90
9975;DHT22;5028;50.974;4.968;2023-05-18T01:54:51;7.00;99.90
9975;DHT22;5028;50.974;4.968;2023-05-18T01:57:24;7.00;99.90
9975;DHT22;5028;50.974;4.968;2023-05-18T01:59:54;7.00;99.90
9975;DHT22;5028;50.974;4.968;2023-05-18T02:02:26;7.00;99.90
9975;DHT22;5028;50.974;4.968;2023-05-18T02:04:55;7.00;99.90
9975;DHT22;5028;50.974;4.968;2023-05-18T02:07:24;6.90;99.90
9975;DHT22;5028;50.974;4.968;2023-05-18T02:09:53;6.90;99.90
9975;DHT22;5028;50.974;4.968;2023-05-18T02:12:23;6.90;99.90
9975;DHT22;5028;50.974;4.968;2023-05-18T02:14:52;6.90;99.90
9975;DHT22;5028;50.974;4.968;2023-05-18T02:17:21;6.90;99.90
9975;DHT22;5028;50.974;4.968;2023-05-18T02:19:52;6.90;99.90
9975;DHT22;5028;50.974;4.968;2023-05-18T02:22:22;6.90;99.90
9975;DHT22;5028;50.974;4.968;2023-05-18T02:24:51;6.90;99.90
9975;DHT22;5028;50.974;4.968;2023-05-18T02:27:19;6.90;99.90
9975;DHT22;5028;50.974;4.968;2023-05-18T02:29:50;6.90;99.90
9975;DHT22;5028;50.974;4.968;2023-05-18T02:32:19;6.90;99.90
9975;DHT22;5028;50.974;4.968;2023-05-18T02:34:51;6.90;99.90
9975;DHT22;5028;50.974;4.968;2023-05-18T02:37:20;6.90;99.90
9975;DHT22;5028;50.974;4.968;2023-05-18T02:39:49;6.90;99.90
9975;DHT22;5028;50.974;4.968;2023-05-18T02:42:18;6.90;99.90
9975;DHT22;5028;50.974;4.968;2023-05-18T02:44:48;6.90;99.90
9975;DHT22;5028;50.974;4.968;2023-05-18T02:47:17;6.90;99.90
9975;DHT22;5028;50.974;4.968;2023-05-18T02:49:45;6.80;99.90
9975;DHT22;5028;50.974;4.968;2023-05-18T02:52:14;6.80;99.90
9975;DHT22;5028;50.974;4.968;2023-05-18T02:54:42;6.80;99.90
9975;DHT22;5028;50.974;4.968;2023-05-18T02:57:11;6.80;99.90
9975;DHT22;5028;50.974;4.968;2023-05-18T02:59:40;6.80;99.90
9975;DHT22;5028;50.974;4.968;2023-05-18T03:02:11;6.80;99.90
9975;DHT22;5028;50.974;4.968;2023-05-18T03:04:40;6.70;99.90
9975;DHT22;5028;50.974;4.968;2023-05-18T03:07:09;6.70;99.90
9975;DHT22;5028;50.974;4.968;2023-05-18T03:09:37;6.70;99.90
9975;DHT22;5028;50.974;4.968;2023-05-18T03:12:07;6.70;99.90
9975;DHT22;5028;50.974;4.968;2023-05-18T03:14:36;6.70;99.90
9975;DHT22;5028;50.974;4.968;2023-05-18T03:17:04;6.60;99.90
9975;DHT22;5028;50.974;4.968;2023-05-18T03:19:36;6.60;99.90
9975;DHT22;5028;50.974;4.968;2023-05-18T03:22:05;6.60;99.90
9975;DHT22;5028;50.974;4.968;2023-05-18T03:24:35;6.60;99.90
9975;DHT22;5028;50.974;4.968;2023-05-18T03:27:06;6.60;99.90
9975;DHT22;5028;50.974;4.968;2023-05-18T03:29:35;6.60;99.90
9975;DHT22;5028;50.974;4.968;2023-05-18T03:32:04;6.60;99.90
9975;DHT22;5028;50.974;4.968;2023-05-18T03:34:35;6.60;99.90
9975;DHT22;5028;50.974;4.968;2023-05-18T03:37:05;6.60;99.90
9975;DHT22;5028;50.974;4.968;2023-05-18T03:39:33;6.60;99.90
9975;DHT22;5028;50.974;4.968;2023-05-18T03:42:02;6.60;99.90
9975;DHT22;5028;50.974;4.968;2023-05-18T03:44:31;6.60;99.90
9975;DHT22;5028;50.974;4.968;2023-05-18T03:47:00;6.60;99.90
9975;DHT22;5028;50.974;4.968;2023-05-18T03:49:28;6.60;99.90
9975;DHT22;5028;50.974;4.968;2023-05-18T03:51:58;6.60;99.90
9975;DHT22;5028;50.974;4.968;2023-05-18T03:54:27;6.50;99.90
9975;DHT22;5028;50.974;4.968;2023-05-18T03:56:56;6.50;99.90
9975;DHT22;5028;50.974;4.968;2023-05-18T03:59:25;6.50;99.90
9975;DHT22;5028;50.974;4.968;2023-05-18T04:01:53;6.50;99.90
9975;DHT22;5028;50.974;4.968;2023-05-18T04:04:22;6.50;99.90
9975;DHT22;5028;50.974;4.968;2023-05-18T04:06:53;6.50;99.90
9975;DHT22;5028;50.974;4.968;2023-05-18T04:09:24;6.40;99.90
9975;DHT22;5028;50.974;4.968;2023-05-18T04:11:54;6.40;99.90
9975;DHT22;5028;50.974;4.968;2023-05-18T04:14:22;6.40;99.90
9975;DHT22;5028;50.974;4.968;2023-05-18T04:16:54;6.50;99.90
9975;DHT22;5028;50.974;4.968;2023-05-18T04:19:24;6.50;99.90
9975;DHT22;5028;50.974;4.968;2023-05-18T04:21:53;6.40;99.90
9975;DHT22;5028;50.974;4.968;2023-05-18T04:24:24;6.50;99.90
9975;DHT22;5028;50.974;4.968;2023-05-18T04:26:52;6.40;99.90
9975;DHT22;5028;50.974;4.968;2023-05-18T04:29:22;6.40;99.90
9975;DHT22;5028;50.974;4.968;2023-05-18T04:31:50;6.50;99.90
9975;DHT22;5028;50.974;4.968;2023-05-18T04:34:19;6.50;99.90
9975;DHT22;5028;50.974;4.968;2023-05-18T04:36:50;6.50;99.90
9975;DHT22;5028;50.974;4.968;2023-05-18T04:39:20;6.50;99.90
9975;DHT22;5028;50.974;4.968;2023-05-18T04:41:52;6.50;99.90
9975;DHT22;5028;50.974;4.968;2023-05-18T04:44:24;6.50;99.90
9975;DHT22;5028;50.974;4.968;2023-05-18T04:46:53;6.60;99.90
9975;DHT22;5028;50.974;4.968;2023-05-18T04:49:23;6.60;99.90
9975;DHT22;5028;50.974;4.968;2023-05-18T04:51:53;6.60;99.90
9975;DHT22;5028;50.974;4.968;2023-05-18T04:54:23;6.60;99.90
9975;DHT22;5028;50.974;4.968;2023-05-18T04:56:56;6.70;99.90
9975;DHT22;5028;50.974;4.968;2023-05-18T04:59:25;6.70;99.90
9975;DHT22;5028;50.974;4.968;2023-05-18T05:01:55;6.70;99.90
9975;DHT22;5028;50.974;4.968;2023-05-18T05:04:23;6.80;99.90
9975;DHT22;5028;50.974;4.968;2023-05-18T05:06:52;6.80;99.90
9975;DHT22;5028;50.974;4.968;2023-05-18T05:09:21;6.90;99.90
9975;DHT22;5028;50.974;4.968;2023-05-18T05:11:49;7.00;99.90
9975;DHT22;5028;50.974;4.968;2023-05-18T05:14:20;7.00;99.90
9975;DHT22;5028;50.974;4.968;2023-05-18T05:16:49;7.00;99.90
9975;DHT22;5028;50.974;4.968;2023-05-18T05:19:17;7.10;99.90
9975;DHT22;5028;50.974;4.968;2023-05-18T05:21:46;7.10;99.90
9975;DHT22;5028;50.974;4.968;2023-05-18T05:24:15;7.10;99.90
9975;DHT22;5028;50.974;4.968;2023-05-18T05:26:44;7.20;99.90
9975;DHT22;5028;50.974;4.968;2023-05-18T05:29:13;7.20;99.90
9975;DHT22;5028;50.974;4.968;2023-05-18T05:31:42;7.30;99.90
9975;DHT22;5028;50.974;4.968;2023-05-18T05:34:11;7.30;99.90
9975;DHT22;5028;50.974;4.968;2023-05-18T05:36:40;7.20;99.90
9975;DHT22;5028;50.974;4.968;2023-05-18T05:39:09;7.30;99.90
9975;DHT22;5028;50.974;4.968;2023-05-18T05:41:39;7.40;99.90
9975;DHT22;5028;50.974;4.968;2023-05-18T05:44:09;7.50;99.90
9975;DHT22;5028;50.974;4.968;2023-05-18T05:46:37;7.50;99.90
9975;DHT22;5028;50.974;4.968;2023-05-18T05:49:07;7.60;99.90
9975;DHT22;5028;50.974;4.968;2023-05-18T05:51:36;7.70;99.90
9975;DHT22;5028;50.974;4.968;2023-05-18T05:54:05;7.70;99.90
9975;DHT22;5028;50.974;4.968;2023-05-18T05:56:36;7.70;99.90
9975;DHT22;5028;50.974;4.968;2023-05-18T05:59:05;7.80;99.90
9975;DHT22;5028;50.974;4.968;2023-05-18T06:01:37;7.90;99.90
9975;DHT22;5028;50.974;4.968;2023-05-18T06:04:07;8.00;99.90
9975;DHT22;5028;50.974;4.968;2023-05-18T06:06:39;8.00;99.90
9975;DHT22;5028;50.974;4.968;2023-05-18T06:09:08;8.10;99.90
9975;DHT22;5028;50.974;4.968;2023-05-18T06:11:36;8.20;99.90
9975;DHT22;5028;50.974;4.968;2023-05-18T06:14:05;8.30;99.90
9975;DHT22;5028;50.974;4.968;2023-05-18T06:16:34;8.50;99.90
9975;DHT22;5028;50.974;4.968;2023-05-18T06:19:02;8.60;99.90
9975;DHT22;5028;50.974;4.968;2023-05-18T06:21:32;8.70;99.90
9975;DHT22;5028;50.974;4.968;2023-05-18T06:24:02;8.80;99.90
9975;DHT22;5028;50.974;4.968;2023-05-18T06:26:31;9.00;99.90
9975;DHT22;5028;50.974;4.968;2023-05-18T06:29:00;9.00;99.90
9975;DHT22;5028;50.974;4.968;2023-05-18T06:31:32;9.10;99.90
9975;DHT22;5028;50.974;4.968;2023-05-18T06:34:01;9.10;99.90
9975;DHT22;5028;50.974;4.968;2023-05-18T06:36:29;9.20;99.90
9975;DHT22;5028;50.974;4.968;2023-05-18T06:39:00;9.30;99.90
9975;DHT22;5028;50.974;4.968;2023-05-18T06:41:31;9.30;99.90
9975;DHT22;5028;50.974;4.968;2023-05-18T06:44:00;9.30;99.90
9975;DHT22;5028;50.974;4.968;2023-05-18T06:46:29;9.40;99.90
9975;DHT22;5028;50.974;4.968;2023-05-18T06:48:58;9.50;99.90
9975;DHT22;5028;50.974;4.968;2023-05-18T06:51:27;9.60;99.90
9975;DHT22;5028;50.974;4.968;2023-05-18T06:53:56;9.80;99.90
9975;DHT22;5028;50.974;4.968;2023-05-18T06:56:26;10.00;99.90
9975;DHT22;5028;50.974;4.968;2023-05-18T06:58:55;10.20;99.90
9975;DHT22;5028;50.974;4.968;2023-05-18T07:01:26;10.30;99.90
9975;DHT22;5028;50.974;4.968;2023-05-18T07:03:55;10.50;99.90
9975;DHT22;5028;50.974;4.968;2023-05-18T07:06:23;10.60;99.90
9975;DHT22;5028;50.974;4.968;2023-05-18T07:08:52;10.70;99.90
9975;DHT22;5028;50.974;4.968;2023-05-18T07:11:22;10.80;99.90
9975;DHT22;5028;50.974;4.968;2023-05-18T07:13:54;10.90;99.90
9975;DHT22;5028;50.974;4.968;2023-05-18T07:16:24;11.00;99.90
9975;DHT22;5028;50.974;4.968;2023-05-18T07:18:55;11.10;99.90
9975;DHT22;5028;50.974;4.968;2023-05-18T07:21:25;11.20;99.90
9975;DHT22;5028;50.974;4.968;2023-05-18T07:23:53;11.20;99.90
9975;DHT22;5028;50.974;4.968;2023-05-18T07:26:22;11.30;99.90
9975;DHT22;5028;50.974;4.968;2023-05-18T07:28:53;11.40;99.90
9975;DHT22;5028;50.974;4.968;2023-05-18T07:31:21;11.50;99.90
9975;DHT22;5028;50.974;4.968;2023-05-18T07:33:51;11.50;99.90
9975;DHT22;5028;50.974;4.968;2023-05-18T07:36:20;11.50;99.90
9975;DHT22;5028;50.974;4.968;2023-05-18T07:38:49;11.40;99.90
9975;DHT22;5028;50.974;4.968;2023-05-18T07:41:21;11.60;99.90
9975;DHT22;5028;50.974;4.968;2023-05-18T07:43:50;11.70;99.90
9975;DHT22;5028;50.974;4.968;2023-05-18T07:46:21;11.90;99.90
9975;DHT22;5028;50.974;4.968;2023-05-18T07:48:50;11.90;99.90
9975;DHT22;5028;50.974;4.968;2023-05-18T07:51:19;11.90;99.90
9975;DHT22;5028;50.974;4.968;2023-05-18T07:53:48;12.00;99.90
9975;DHT22;5028;50.974;4.968;2023-05-18T07:56:16;12.00;99.90
9975;DHT22;5028;50.974;4.968;2023-05-18T07:58:45;12.00;99.90
9975;DHT22;5028;50.974;4.968;2023-05-18T08:01:14;12.00;99.90
9975;DHT22;5028;50.974;4.968;2023-05-18T08:03:44;12.10;99.90
9975;DHT22;5028;50.974;4.968;2023-05-18T08:06:13;12.10;99.90
9975;DHT22;5028;50.974;4.968;2023-05-18T08:08:41;12.20;99.90
9975;DHT22;5028;50.974;4.968;2023-05-18T08:11:10;12.40;99.90
9975;DHT22;5028;50.974;4.968;2023-05-18T08:13:39;12.50;99.90
9975;DHT22;5028;50.974;4.968;2023-05-18T08:16:08;12.70;99.90
9975;DHT22;5028;50.974;4.968;2023-05-18T08:18:38;13.00;99.90
9975;DHT22;5028;50.974;4.968;2023-05-18T08:21:09;13.20;99.90
9975;DHT22;5028;50.974;4.968;2023-05-18T08:23:38;13.30;99.90
9975;DHT22;5028;50.974;4.968;2023-05-18T08:26:07;13.40;99.90
9975;DHT22;5028;50.974;4.968;2023-05-18T08:28:40;13.60;99.90
9975;DHT22;5028;50.974;4.968;2023-05-18T08:31:09;13.90;99.90
9975;DHT22;5028;50.974;4.968;2023-05-18T08:33:38;14.00;99.90
9975;DHT22;5028;50.974;4.968;2023-05-18T08:36:09;13.80;99.90
9975;DHT22;5028;50.974;4.968;2023-05-18T08:38:38;13.40;99.90
9975;DHT22;5028;50.974;4.968;2023-05-18T08:41:14;13.60;99.90
9975;DHT22;5028;50.974;4.968;2023-05-18T08:43:52;13.60;99.90
9975;DHT22;5028;50.974;4.968;2023-05-18T08:46:27;13.50;99.90
9975;DHT22;5028;50.974;4.968;2023-05-18T08:48:58;13.50;99.90
9975;DHT22;5028;50.974;4.968;2023-05-18T08:51:33;13.80;99.90
9975;DHT22;5028;50.974;4.968;2023-05-18T08:54:04;14.20;99.90
9975;DHT22;5028;50.974;4.968;2023-05-18T08:56:34;14.00;99.90
9975;DHT22;5028;50.974;4.968;2023-05-18T08:59:04;14.20;99.90
9975;DHT22;5028;50.974;4.968;2023-05-18T09:01:36;14.20;99.90
9975;DHT22;5028;50.974;4.968;2023-05-18T09:04:05;14.20;99.90
9975;DHT22;5028;50.974;4.968;2023-05-18T09:06:36;14.20;99.90
9975;DHT22;5028;50.974;4.968;2023-05-18T09:09:05;14.10;99.90
9975;DHT22;5028;50.974;4.968;2023-05-18T09:11:34;14.20;99.90
9975;DHT22;5028;50.974;4.968;2023-05-18T09:14:02;14.30;99.90
9975;DHT22;5028;50.974;4.968;2023-05-18T09:16:31;14.20;99.90
9975;DHT22;5028;50.974;4.968;2023-05-18T09:19:00;14.40;99.90
9975;DHT22;5028;50.974;4.968;2023-05-18T09:21:30;14.60;99.90
9975;DHT22;5028;50.974;4.968;2023-05-18T09:24:01;14.60;99.90
9975;DHT22;5028;50.974;4.968;2023-05-18T09:26:30;14.40;99.90
9975;DHT22;5028;50.974;4.968;2023-05-18T09:28:58;14.10;99.90
9975;DHT22;5028;50.974;4.968;2023-05-18T09:31:29;14.00;99.90
9975;DHT22;5028;50.974;4.968;2023-05-18T09:33:59;13.90;99.90
9975;DHT22;5028;50.974;4.968;2023-05-18T09:36:31;14.10;99.90
9975;DHT22;5028;50.974;4.968;2023-05-18T09:39:06;14.40;99.90
9975;DHT22;5028;50.974;4.968;2023-05-18T09:41:37;14.70;99.90
9975;DHT22;5028;50.974;4.968;2023-05-18T09:44:07;14.50;99.90
9975;DHT22;5028;50.974;4.968;2023-05-18T09:46:37;14.60;99.90
9975;DHT22;5028;50.974;4.968;2023-05-18T09:49:06;14.90;99.90
9975;DHT22;5028;50.974;4.968;2023-05-18T09:51:36;15.20;99.90
9975;DHT22;5028;50.974;4.968;2023-05-18T09:54:07;15.20;99.90
9975;DHT22;5028;50.974;4.968;2023-05-18T09:56:37;15.10;99.90
9975;DHT22;5028;50.974;4.968;2023-05-18T09:59:10;15.20;99.90
9975;DHT22;5028;50.974;4.968;2023-05-18T10:01:54;15.30;99.90
9975;DHT22;5028;50.974;4.968;2023-05-18T10:04:34;15.60;99.90
9975;DHT22;5028;50.974;4.968;2023-05-18T10:07:08;15.60;99.90
9975;DHT22;5028;50.974;4.968;2023-05-18T10:09:40;15.60;99.90
9975;DHT22;5028;50.974;4.968;2023-05-18T10:12:10;15.50;99.90
9975;DHT22;5028;50.974;4.968;2023-05-18T10:14:41;15.30;99.90
9975;DHT22;5028;50.974;4.968;2023-05-18T10:17:11;15.50;99.90
9975;DHT22;5028;50.974;4.968;2023-05-18T10:19:43;15.70;99.90
9975;DHT22;5028;50.974;4.968;2023-05-18T10:22:15;16.00;99.90
9975;DHT22;5028;50.974;4.968;2023-05-18T10:24:50;15.90;99.90
9975;DHT22;5028;50.974;4.968;2023-05-18T10:27:25;15.80;99.90
9975;DHT22;5028;50.974;4.968;2023-05-18T10:29:56;16.00;99.90
9975;DHT22;5028;50.974;4.968;2023-05-18T10:32:55;15.90;99.90
9975;DHT22;5028;50.974;4.968;2023-05-18T10:35:45;16.10;99.90
9975;DHT22;5028;50.974;4.968;2023-05-18T10:38:18;16.20;99.90
9975;DHT22;5028;50.974;4.968;2023-05-18T10:40:51;16.40;99.90
9975;DHT22;5028;50.974;4.968;2023-05-18T10:43:22;16.60;99.90
9975;DHT22;5028;50.974;4.968;2023-05-18T10:45:54;16.70;99.90
9975;DHT22;5028;50.974;4.968;2023-05-18T10:48:25;17.10;99.90
9975;DHT22;5028;50.974;4.968;2023-05-18T10:50:56;17.50;99.90
9975;DHT22;5028;50.974;4.968;2023-05-18T10:53:26;17.70;99.90
9975;DHT22;5028;50.974;4.968;2023-05-18T10:55:56;17.70;99.90
9975;DHT22;5028;50.974;4.968;2023-05-18T10:58:30;17.90;99.90
9975;DHT22;5028;50.974;4.968;2023-05-18T11:01:00;18.40;99.90
9975;DHT22;5028;50.974;4.968;2023-05-18T11:03:32;18.50;99.90
9975;DHT22;5028;50.974;4.968;2023-05-18T11:06:05;18.40;99.90
9975;DHT22;5028;50.974;4.968;2023-05-18T11:08:41;18.30;99.90
9975;DHT22;5028;50.974;4.968;2023-05-18T11:11:12;17.90;99.90
9975;DHT22;5028;50.974;4.968;2023-05-18T11:13:47;17.50;99.90
9975;DHT22;5028;50.974;4.968;2023-05-18T11:16:18;17.50;99.90
9975;DHT22;5028;50.974;4.968;2023-05-18T11:18:48;17.80;99.90
9975;DHT22;5028;50.974;4.968;2023-05-18T11:21:19;17.90;99.90
9975;DHT22;5028;50.974;4.968;2023-05-18T11:24:17;18.00;99.90
9975;DHT22;5028;50.974;4.968;2023-05-18T11:26:49;18.10;99.90
9975;DHT22;5028;50.974;4.968;2023-05-18T11:29:20;18.70;99.90
9975;DHT22;5028;50.974;4.968;2023-05-18T11:31:51;19.00;99.90
9975;DHT22;5028;50.974;4.968;2023-05-18T11:34:44;18.90;99.90
9975;DHT22;5028;50.974;4.968;2023-05-18T11:37:14;18.20;99.90
9975;DHT22;5028;50.974;4.968;2023-05-18T11:39:52;17.70;99.90
9975;DHT22;5028;50.974;4.968;2023-05-18T11:42:32;17.90;99.90
9975;DHT22;5028;50.974;4.968;2023-05-18T11:45:05;18.20;99.90
9975;DHT22;5028;50.974;4.968;2023-05-18T11:47:34;18.40;99.90
9975;DHT22;5028;50.974;4.968;2023-05-18T11:50:06;18.20;99.90
9975;DHT22;5028;50.974;4.968;2023-05-18T11:52:44;18.10;99.90
9975;DHT22;5028;50.974;4.968;2023-05-18T11:55:15;18.20;99.90
9975;DHT22;5028;50.974;4.968;2023-05-18T11:57:50;18.10;99.90
9975;DHT22;5028;50.974;4.968;2023-05-18T12:00:20;18.10;99.90
9975;DHT22;5028;50.974;4.968;2023-05-18T12:02:55;18.10;99.90
9975;DHT22;5028;50.974;4.968;2023-05-18T12:05:29;18.00;99.90
9975;DHT22;5028;50.974;4.968;2023-05-18T12:07:58;18.20;99.90
9975;DHT22;5028;50.974;4.968;2023-05-18T12:10:27;18.20;99.90
9975;DHT22;5028;50.974;4.968;2023-05-18T12:12:59;18.20;99.90
9975;DHT22;5028;50.974;4.968;2023-05-18T12:15:29;18.40;99.90
9975;DHT22;5028;50.974;4.968;2023-05-18T12:17:58;18.70;99.90
9975;DHT22;5028;50.974;4.968;2023-05-18T12:20:27;18.50;99.90
9975;DHT22;5028;50.974;4.968;2023-05-18T12:25:41;18.10;99.90
9975;DHT22;5028;50.974;4.968;2023-05-18T12:28:13;18.20;99.90
9975;DHT22;5028;50.974;4.968;2023-05-18T12:30:43;18.10;99.90
9975;DHT22;5028;50.974;4.968;2023-05-18T12:33:12;18.30;99.90
9975;DHT22;5028;50.974;4.968;2023-05-18T12:35:41;18.50;99.90
9975;DHT22;5028;50.974;4.968;2023-05-18T12:38:10;18.80;99.90
9975;DHT22;5028;50.974;4.968;2023-05-18T12:40:39;18.70;99.90
9975;DHT22;5028;50.974;4.968;2023-05-18T12:43:16;18.50;99.90
9975;DHT22;5028;50.974;4.968;2023-05-18T12:45:44;18.30;99.90
9975;DHT22;5028;50.974;4.968;2023-05-18T12:48:15;18.40;99.90
9975;DHT22;5028;50.974;4.968;2023-05-18T12:50:48;18.50;99.90
9975;DHT22;5028;50.974;4.968;2023-05-18T12:53:18;18.60;99.90
9975;DHT22;5028;50.974;4.968;2023-05-18T12:55:55;18.90;99.90
9975;DHT22;5028;50.974;4.968;2023-05-18T12:58:26;18.90;99.90
9975;DHT22;5028;50.974;4.968;2023-05-18T13:00:54;19.00;99.90
9975;DHT22;5028;50.974;4.968;2023-05-18T13:03:23;19.00;99.90
9975;DHT22;5028;50.974;4.968;2023-05-18T13:06:01;19.20;99.90
9975;DHT22;5028;50.974;4.968;2023-05-18T13:08:31;19.40;99.90
9975;DHT22;5028;50.974;4.968;2023-05-18T13:11:01;19.50;99.90
9975;DHT22;5028;50.974;4.968;2023-05-18T13:13:59;19.60;99.90
9975;DHT22;5028;50.974;4.968;2023-05-18T13:16:29;19.50;99.90
9975;DHT22;5028;50.974;4.968;2023-05-18T13:19:00;19.40;99.90
9975;DHT22;5028;50.974;4.968;2023-05-18T13:21:29;19.20;99.90
9975;DHT22;5028;50.974;4.968;2023-05-18T13:23:58;18.60;99.90
9975;DHT22;5028;50.974;4.968;2023-05-18T13:26:27;18.60;99.90
9975;DHT22;5028;50.974;4.968;2023-05-18T13:28:56;18.50;99.90
9975;DHT22;5028;50.974;4.968;2023-05-18T13:31:27;18.70;99.90
9975;DHT22;5028;50.974;4.968;2023-05-18T13:33:56;19.00;99.90
9975;DHT22;5028;50.974;4.968;2023-05-18T13:36:25;19.40;99.90
9975;DHT22;5028;50.974;4.968;2023-05-18T13:38:55;19.00;99.90
9975;DHT22;5028;50.974;4.968;2023-05-18T13:41:24;18.90;99.90
9975;DHT22;5028;50.974;4.968;2023-05-18T13:43:53;18.70;99.90
9975;DHT22;5028;50.974;4.968;2023-05-18T13:46:22;18.40;99.90
9975;DHT22;5028;50.974;4.968;2023-05-18T13:48:53;18.20;99.90
9975;DHT22;5028;50.974;4.968;2023-05-18T13:51:21;18.50;99.90
9975;DHT22;5028;50.974;4.968;2023-05-18T13:53:50;18.70;99.90
9975;DHT22;5028;50.974;4.968;2023-05-18T13:56:19;18.50;99.90
9975;DHT22;5028;50.974;4.968;2023-05-18T13:58:48;18.40;99.90
9975;DHT22;5028;50.974;4.968;2023-05-18T14:01:17;18.40;99.90
9975;DHT22;5028;50.974;4.968;2023-05-18T14:03:48;18.50;99.90
9975;DHT22;5028;50.974;4.968;2023-05-18T14:06:20;18.60;99.90
9975;DHT22;5028;50.974;4.968;2023-05-18T14:08:50;18.70;99.90
9975;DHT22;5028;50.974;4.968;2023-05-18T14:11:18;18.60;99.90
9975;DHT22;5028;50.974;4.968;2023-05-18T14:13:47;18.60;99.90
9975;DHT22;5028;50.974;4.968;2023-05-18T14:16:16;18.40;99.90
9975;DHT22;5028;50.974;4.968;2023-05-18T14:18:45;18.40;99.90
9975;DHT22;5028;50.974;4.968;2023-05-18T14:21:13;18.60;99.90
9975;DHT22;5028;50.974;4.968;2023-05-18T14:23:44;18.50;99.90
9975;DHT22;5028;50.974;4.968;2023-05-18T14:26:14;18.00;99.90
9975;DHT22;5028;50.974;4.968;2023-05-18T14:28:42;17.90;99.90
9975;DHT22;5028;50.974;4.968;2023-05-18T14:31:11;17.80;99.90
9975;DHT22;5028;50.974;4.968;2023-05-18T14:33:40;18.00;99.90
9975;DHT22;5028;50.974;4.968;2023-05-18T14:36:08;17.60;99.90
9975;DHT22;5028;50.974;4.968;2023-05-18T14:38:37;17.60;99.90
9975;DHT22;5028;50.974;4.968;2023-05-18T14:41:08;17.60;99.90
9975;DHT22;5028;50.974;4.968;2023-05-18T14:43:36;17.50;99.90
9975;DHT22;5028;50.974;4.968;2023-05-18T14:46:05;17.60;99.90
9975;DHT22;5028;50.974;4.968;2023-05-18T14:48:35;17.40;99.90
9975;DHT22;5028;50.974;4.968;2023-05-18T14:51:03;17.40;99.90
9975;DHT22;5028;50.974;4.968;2023-05-18T14:53:32;17.30;99.90
9975;DHT22;5028;50.974;4.968;2023-05-18T14:56:01;17.30;99.90
9975;DHT22;5028;50.974;4.968;2023-05-18T14:58:34;17.30;99.90
9975;DHT22;5028;50.974;4.968;2023-05-18T15:01:03;17.30;99.90
9975;DHT22;5028;50.974;4.968;2023-05-18T15:03:32;17.40;99.90
9975;DHT22;5028;50.974;4.968;2023-05-18T15:06:01;17.40;99.90
9975;DHT22;5028;50.974;4.968;2023-05-18T15:08:30;17.30;99.90
9975;DHT22;5028;50.974;4.968;2023-05-18T15:10:58;17.20;99.90
9975;DHT22;5028;50.974;4.968;2023-05-18T15:13:27;17.00;99.90
9975;DHT22;5028;50.974;4.968;2023-05-18T15:15:58;16.80;99.90
9975;DHT22;5028;50.974;4.968;2023-05-18T15:18:26;16.90;99.90
9975;DHT22;5028;50.974;4.968;2023-05-18T15:20:55;17.00;99.90
9975;DHT22;5028;50.974;4.968;2023-05-18T15:23:24;17.00;99.90
9975;DHT22;5028;50.974;4.968;2023-05-18T15:25:53;17.10;99.90
9975;DHT22;5028;50.974;4.968;2023-05-18T15:28:22;17.00;99.90
9975;DHT22;5028;50.974;4.968;2023-05-18T15:30:51;16.90;99.90
9975;DHT22;5028;50.974;4.968;2023-05-18T15:33:22;16.90;99.90
9975;DHT22;5028;50.974;4.968;2023-05-18T15:35:50;17.10;99.90
9975;DHT22;5028;50.974;4.968;2023-05-18T15:38:19;17.10;99.90
9975;DHT22;5028;50.974;4.968;2023-05-18T15:40:47;17.00;99.90
9975;DHT22;5028;50.974;4.968;2023-05-18T15:43:17;16.90;99.90
9975;DHT22;5028;50.974;4.968;2023-05-18T15:45:46;16.80;99.90
9975;DHT22;5028;50.974;4.968;2023-05-18T15:48:15;16.70;99.90
9975;DHT22;5028;50.974;4.968;2023-05-18T15:50:45;16.60;99.90
9975;DHT22;5028;50.974;4.968;2023-05-18T15:53:13;16.60;99.90
9975;DHT22;5028;50.974;4.968;2023-05-18T15:55:42;16.60;99.90
9975;DHT22;5028;50.974;4.968;2023-05-18T15:58:11;16.60;99.90
9975;DHT22;5028;50.974;4.968;2023-05-18T16:00:40;16.70;99.90
9975;DHT22;5028;50.974;4.968;2023-05-18T16:03:09;16.70;99.90
9975;DHT22;5028;50.974;4.968;2023-05-18T16:05:38;16.60;99.90
9975;DHT22;5028;50.974;4.968;2023-05-18T16:08:08;16.60;99.90
9975;DHT22;5028;50.974;4.968;2023-05-18T16:10:37;16.60;99.90
9975;DHT22;5028;50.974;4.968;2023-05-18T16:13:06;16.50;99.90
9975;DHT22;5028;50.974;4.968;2023-05-18T16:15:35;16.50;99.90
9975;DHT22;5028;50.974;4.968;2023-05-18T16:18:04;16.60;99.90
9975;DHT22;5028;50.974;4.968;2023-05-18T16:20:33;16.60;99.90
9975;DHT22;5028;50.974;4.968;2023-05-18T16:23:01;16.60;99.90
9975;DHT22;5028;50.974;4.968;2023-05-18T16:25:32;16.70;99.90
9975;DHT22;5028;50.974;4.968;2023-05-18T16:28:00;16.60;99.90
9975;DHT22;5028;50.974;4.968;2023-05-18T16:30:29;16.50;99.90
9975;DHT22;5028;50.974;4.968;2023-05-18T16:32:59;16.50;99.90